createdAt,value
2018-06-12T00:00:19.311Z,96984.66
2018-06-12T00:00:50.897Z,96991.14
2018-06-12T00:01:22.468Z,96988.98
2018-06-12T00:01:54.081Z,96991.14
2018-06-12T00:02:25.663Z,96994.60
2018-06-12T00:02:57.273Z,96989.56
2018-06-12T00:03:28.865Z,96984.88
2018-06-12T00:04:00.432Z,96987.50
2018-06-12T00:04:32.018Z,96985.83
2018-06-12T00:05:03.592Z,96988.84
2018-06-12T00:05:35.197Z,96986.28
2018-06-12T00:06:06.801Z,96985.00
2018-06-12T00:06:38.396Z,96984.22
2018-06-12T00:07:10.024Z,96979.98
2018-06-12T00:07:41.609Z,96978.67
2018-06-12T00:08:13.193Z,96979.12
2018-06-12T00:08:44.781Z,96976.98
2018-06-12T00:09:16.394Z,96982.10
2018-06-12T00:09:47.981Z,96976.14
2018-06-12T00:10:19.589Z,96979.63
2018-06-12T00:10:51.189Z,96977.52
2018-06-12T00:11:22.798Z,96974.11
2018-06-12T00:11:54.409Z,96978.83
2018-06-12T00:12:26.058Z,96979.25
2018-06-12T00:12:57.642Z,96980.08
2018-06-12T00:13:29.225Z,96975.84
2018-06-12T00:14:00.805Z,96975.84
2018-06-12T00:14:32.396Z,96971.55
2018-06-12T00:15:03.983Z,96971.55
2018-06-12T00:15:35.593Z,96974.56
2018-06-12T00:16:07.182Z,96975.42
2018-06-12T00:16:38.751Z,96972.09
2018-06-12T00:17:10.320Z,96971.28
2018-06-12T00:17:41.965Z,96972.98
2018-06-12T00:18:13.537Z,96969.16
2018-06-12T00:18:45.114Z,96971.25
2018-06-12T00:19:16.684Z,96969.58
2018-06-12T00:19:48.284Z,96968.75
2018-06-12T00:20:19.864Z,96966.59
2018-06-12T00:20:51.466Z,96969.16
2018-06-12T00:21:23.048Z,96968.30
2018-06-12T00:21:54.656Z,96967.87
2018-06-12T00:22:26.245Z,96973.94
2018-06-12T00:22:57.840Z,96962.81
2018-06-12T00:23:29.426Z,96965.41
2018-06-12T00:24:01.029Z,96966.72
2018-06-12T00:24:32.638Z,96968.09
2018-06-12T00:25:04.298Z,96964.16
2018-06-12T00:25:35.885Z,96966.72
2018-06-12T00:26:07.455Z,96967.16
2018-06-12T00:26:39.065Z,96961.23
2018-06-12T00:27:10.653Z,96969.73
2018-06-12T00:27:42.262Z,96967.59
2018-06-12T00:28:13.910Z,96969.73
2018-06-12T00:28:45.517Z,96973.13
2018-06-12T00:29:17.121Z,96967.59
2018-06-12T00:29:48.729Z,96975.70
2018-06-12T00:30:20.337Z,96972.27
2018-06-12T00:30:51.949Z,96975.25
2018-06-12T00:31:23.520Z,96966.24
2018-06-12T00:31:55.110Z,96973.55
2018-06-12T00:32:26.689Z,96972.69
2018-06-12T00:32:58.264Z,96968.00
2018-06-12T00:33:29.935Z,96966.75
2018-06-12T00:34:01.517Z,96968.87
2018-06-12T00:34:33.101Z,96964.66
2018-06-12T00:35:04.788Z,96968.13
2018-06-12T00:35:36.369Z,96965.14
2018-06-12T00:36:07.973Z,96960.87
2018-06-12T00:36:39.548Z,96969.44
2018-06-12T00:37:11.117Z,96963.86
2018-06-12T00:37:42.698Z,96963.95
2018-06-12T00:38:14.302Z,96963.86
2018-06-12T00:38:45.949Z,96953.72
2018-06-12T00:39:17.557Z,96962.99
2018-06-12T00:39:49.168Z,96965.17
2018-06-12T00:40:20.745Z,96961.71
2018-06-12T00:40:52.345Z,96960.02
2018-06-12T00:41:23.916Z,96953.15
2018-06-12T00:41:55.491Z,96956.61
2018-06-12T00:42:27.073Z,96959.44
2018-06-12T00:42:58.644Z,96964.09
2018-06-12T00:43:30.286Z,96959.83
2018-06-12T00:44:01.899Z,96956.88
2018-06-12T00:44:33.513Z,96959.44
2018-06-12T00:45:05.125Z,96966.30
2018-06-12T00:45:36.709Z,96959.53
2018-06-12T00:46:08.309Z,96957.47
2018-06-12T00:46:39.902Z,96957.00
2018-06-12T00:47:11.486Z,96962.58
2018-06-12T00:47:43.065Z,96962.96
2018-06-12T00:48:14.670Z,96956.97
2018-06-12T00:48:46.346Z,96948.35
2018-06-12T00:49:17.990Z,96966.39
2018-06-12T00:49:49.582Z,96962.55
2018-06-12T00:50:21.190Z,96963.32
2018-06-12T00:50:52.799Z,96962.88
2018-06-12T00:51:24.409Z,96964.12
2018-06-12T00:51:55.993Z,96964.09
2018-06-12T00:52:27.579Z,96963.23
2018-06-12T00:52:59.157Z,96966.15
2018-06-12T00:53:30.765Z,96963.02
2018-06-12T00:54:02.373Z,96962.54
2018-06-12T00:54:34.013Z,96962.95
2018-06-12T00:55:05.601Z,96952.75
2018-06-12T00:55:37.183Z,96968.00
2018-06-12T00:56:08.752Z,96961.61
2018-06-12T00:56:40.353Z,96966.20
2018-06-12T00:57:11.957Z,96965.75
2018-06-12T00:57:43.561Z,96967.45
2018-06-12T00:58:15.172Z,96964.09
2018-06-12T00:58:46.759Z,96967.55
2018-06-12T00:59:18.353Z,96962.80
2018-06-12T00:59:49.969Z,96962.00
2018-06-12T01:00:21.570Z,96964.14
2018-06-12T01:00:53.180Z,96959.97
2018-06-12T01:01:24.762Z,96969.40
2018-06-12T01:01:56.347Z,96967.25
2018-06-12T01:02:27.939Z,96967.70
2018-06-12T01:02:59.523Z,96965.61
2018-06-12T01:03:31.120Z,96966.95
2018-06-12T01:04:02.703Z,96970.00
2018-06-12T01:04:34.335Z,96965.80
2018-06-12T01:05:05.937Z,96967.87
2018-06-12T01:05:37.555Z,96961.02
2018-06-12T01:06:09.151Z,96965.25
2018-06-12T01:06:40.762Z,96965.16
2018-06-12T01:07:12.335Z,96960.98
2018-06-12T01:07:43.981Z,96969.52
2018-06-12T01:08:15.590Z,96971.97
2018-06-12T01:08:47.189Z,96965.55
2018-06-12T01:09:18.797Z,96965.55
2018-06-12T01:09:50.412Z,96970.30
2018-06-12T01:10:22.013Z,96969.52
2018-06-12T01:10:53.625Z,96964.87
2018-06-12T01:11:25.210Z,96964.09
2018-06-12T01:11:56.780Z,96964.96
2018-06-12T01:12:28.356Z,96964.12
2018-06-12T01:12:59.947Z,96964.19
2018-06-12T01:13:31.553Z,96968.87
2018-06-12T01:14:03.128Z,96964.66
2018-06-12T01:14:34.710Z,96964.70
2018-06-12T01:15:06.290Z,96962.58
2018-06-12T01:15:37.859Z,96965.56
2018-06-12T01:16:09.457Z,96967.70
2018-06-12T01:16:41.045Z,96966.94
2018-06-12T01:17:12.622Z,96968.66
2018-06-12T01:17:44.201Z,96965.68
2018-06-12T01:18:15.772Z,96967.41
2018-06-12T01:18:47.377Z,96967.37
2018-06-12T01:19:18.952Z,96958.02
2018-06-12T01:19:50.533Z,96964.37
2018-06-12T01:20:22.146Z,96966.52
2018-06-12T01:20:53.727Z,96962.61
2018-06-12T01:21:25.333Z,96962.61
2018-06-12T01:21:56.946Z,96961.38
2018-06-12T01:22:28.530Z,96964.39
2018-06-12T01:23:00.115Z,96962.70
2018-06-12T01:23:31.689Z,96963.11
2018-06-12T01:24:03.287Z,96961.86
2018-06-12T01:24:34.874Z,96963.66
2018-06-12T01:25:06.443Z,96962.79
2018-06-12T01:25:38.082Z,96964.94
2018-06-12T01:26:09.689Z,96966.16
2018-06-12T01:26:41.302Z,96961.89
2018-06-12T01:27:12.898Z,96963.11
2018-06-12T01:27:44.468Z,96956.38
2018-06-12T01:28:16.069Z,96962.22
2018-06-12T01:28:47.651Z,96964.81
2018-06-12T01:29:19.265Z,96960.58
2018-06-12T01:29:50.863Z,96958.41
2018-06-12T01:30:22.473Z,96954.17
2018-06-12T01:30:54.117Z,96956.28
2018-06-12T01:31:25.705Z,96955.84
2018-06-12T01:31:57.315Z,96952.02
2018-06-12T01:32:28.896Z,96958.02
2018-06-12T01:33:00.478Z,96957.27
2018-06-12T01:33:32.082Z,96956.41
2018-06-12T01:34:03.693Z,96955.98
2018-06-12T01:34:35.301Z,96958.58
2018-06-12T01:35:06.914Z,96955.57
2018-06-12T01:35:38.502Z,96957.69
2018-06-12T01:36:10.104Z,96958.05
2018-06-12T01:36:41.682Z,96957.27
2018-06-12T01:37:13.253Z,96953.90
2018-06-12T01:37:44.827Z,96956.02
2018-06-12T01:38:16.412Z,96959.03
2018-06-12T01:38:48.008Z,96956.97
2018-06-12T01:39:19.621Z,96962.10
2018-06-12T01:39:51.205Z,96964.22
2018-06-12T01:40:22.795Z,96955.27
2018-06-12T01:40:54.391Z,96955.27
2018-06-12T01:41:26.071Z,96959.52
2018-06-12T01:41:57.664Z,96962.10
2018-06-12T01:42:29.246Z,96959.03
2018-06-12T01:43:00.853Z,96956.47
2018-06-12T01:43:32.436Z,96957.39
2018-06-12T01:44:04.022Z,96958.67
2018-06-12T01:44:35.616Z,96959.59
2018-06-12T01:45:07.221Z,96959.52
2018-06-12T01:45:38.809Z,96963.74
2018-06-12T01:46:10.413Z,96963.69
2018-06-12T01:46:42.054Z,96964.07
2018-06-12T01:47:13.652Z,96966.13
2018-06-12T01:47:45.247Z,96961.89
2018-06-12T01:48:16.829Z,96964.94
2018-06-12T01:48:48.409Z,96966.22
2018-06-12T01:49:20.017Z,96964.97
2018-06-12T01:49:51.623Z,96968.84
2018-06-12T01:50:23.229Z,96966.66
2018-06-12T01:50:54.837Z,96967.08
2018-06-12T01:51:26.446Z,96971.38
2018-06-12T01:51:58.080Z,96964.99
2018-06-12T01:52:29.690Z,96973.55
2018-06-12T01:53:01.297Z,96967.14
2018-06-12T01:53:32.885Z,96969.26
2018-06-12T01:54:04.479Z,96969.26
2018-06-12T01:54:36.065Z,96971.83
2018-06-12T01:55:07.640Z,96963.27
2018-06-12T01:55:39.232Z,96966.66
2018-06-12T01:56:10.831Z,96970.93
2018-06-12T01:56:42.441Z,96966.25
2018-06-12T01:57:14.036Z,96961.56
2018-06-12T01:57:45.645Z,96967.11
2018-06-12T01:58:17.233Z,96969.67
2018-06-12T01:58:48.838Z,96965.41
2018-06-12T01:59:20.412Z,96970.13
2018-06-12T01:59:52.026Z,96966.28
2018-06-12T02:00:23.593Z,96970.13
2018-06-12T02:00:55.201Z,96971.38
2018-06-12T02:01:26.776Z,96966.28
2018-06-12T02:01:58.345Z,96962.10
2018-06-12T02:02:29.976Z,96967.50
2018-06-12T02:03:01.549Z,96967.53
2018-06-12T02:03:33.133Z,96964.99
2018-06-12T02:04:04.700Z,96965.02
2018-06-12T02:04:36.291Z,96966.72
2018-06-12T02:05:07.897Z,96969.70
2018-06-12T02:05:39.486Z,96966.70
2018-06-12T02:06:11.093Z,96965.86
2018-06-12T02:06:42.691Z,96973.55
2018-06-12T02:07:14.277Z,96962.94
2018-06-12T02:07:45.900Z,96967.65
2018-06-12T02:08:17.468Z,96962.52
2018-06-12T02:08:49.059Z,96969.83
2018-06-12T02:09:20.656Z,96969.83
2018-06-12T02:09:52.227Z,96969.83
2018-06-12T02:10:23.812Z,96959.16
2018-06-12T02:10:55.379Z,96966.43
2018-06-12T02:11:26.971Z,96958.80
2018-06-12T02:11:58.581Z,96960.53
2018-06-12T02:12:30.562Z,96962.55
2018-06-12T02:13:02.179Z,96961.86
2018-06-12T02:13:33.760Z,96967.77
2018-06-12T02:14:05.369Z,96966.01
2018-06-12T02:14:36.953Z,96968.64
2018-06-12T02:15:08.562Z,96964.38
2018-06-12T02:15:40.145Z,96966.81
2018-06-12T02:16:11.725Z,96962.52
2018-06-12T02:16:43.333Z,96968.42
2018-06-12T02:17:14.918Z,96963.74
2018-06-12T02:17:46.501Z,96972.69
2018-06-12T02:18:18.138Z,96965.38
2018-06-12T02:18:49.725Z,96961.53
2018-06-12T02:19:21.310Z,96964.10
2018-06-12T02:19:52.918Z,96960.67
2018-06-12T02:20:24.536Z,96957.69
2018-06-12T02:20:56.135Z,96963.17
2018-06-12T02:21:27.730Z,96964.84
2018-06-12T02:21:59.337Z,96971.28
2018-06-12T02:22:30.941Z,96965.73
2018-06-12T02:23:02.540Z,96963.27
2018-06-12T02:23:34.182Z,96967.08
2018-06-12T02:24:05.829Z,96964.58
2018-06-12T02:24:37.437Z,96969.67
2018-06-12T02:25:09.046Z,96966.25
2018-06-12T02:25:40.616Z,96969.65
2018-06-12T02:26:12.197Z,96967.56
2018-06-12T02:26:43.767Z,96961.12
2018-06-12T02:27:15.345Z,96967.08
2018-06-12T02:27:46.944Z,96963.27
2018-06-12T02:28:18.589Z,96961.12
2018-06-12T02:28:50.169Z,96962.84
2018-06-12T02:29:21.778Z,96958.58
2018-06-12T02:29:53.379Z,96964.22
2018-06-12T02:30:24.968Z,96962.43
2018-06-12T02:30:56.551Z,96961.15
2018-06-12T02:31:28.157Z,96962.08
2018-06-12T02:31:59.751Z,96965.09
2018-06-12T02:32:31.338Z,96960.87
2018-06-12T02:33:02.934Z,96959.59
2018-06-12T02:33:34.581Z,96962.70
2018-06-12T02:34:06.205Z,96963.95
2018-06-12T02:34:37.797Z,96971.20
2018-06-12T02:35:09.364Z,96963.95
2018-06-12T02:35:40.960Z,96965.27
2018-06-12T02:36:12.545Z,96965.27
2018-06-12T02:36:44.149Z,96966.13
2018-06-12T02:37:15.757Z,96962.25
2018-06-12T02:37:47.352Z,96963.54
2018-06-12T02:38:18.935Z,96966.07
2018-06-12T02:38:50.579Z,96964.79
2018-06-12T02:39:22.171Z,96963.50
2018-06-12T02:39:53.757Z,96968.64
2018-06-12T02:40:25.370Z,96969.05
2018-06-12T02:40:56.957Z,96961.84
2018-06-12T02:41:28.600Z,96967.71
2018-06-12T02:42:00.232Z,96970.63
2018-06-12T02:42:31.828Z,96964.64
2018-06-12T02:43:03.418Z,96964.25
2018-06-12T02:43:35.017Z,96974.90
2018-06-12T02:44:06.590Z,96971.44
2018-06-12T02:44:38.187Z,96972.36
2018-06-12T02:45:09.781Z,96971.05
2018-06-12T02:45:41.393Z,96972.81
2018-06-12T02:46:12.981Z,96969.80
2018-06-12T02:46:44.581Z,96972.78
2018-06-12T02:47:16.183Z,96975.80
2018-06-12T02:47:47.789Z,96974.48
2018-06-12T02:48:19.382Z,96973.64
2018-06-12T02:48:50.979Z,96972.36
2018-06-12T02:49:22.588Z,96979.19
2018-06-12T02:49:54.164Z,96975.70
2018-06-12T02:50:25.732Z,96973.11
2018-06-12T02:50:57.377Z,96977.79
2018-06-12T02:51:28.961Z,96978.23
2018-06-12T02:52:00.533Z,96973.62
2018-06-12T02:52:32.108Z,96976.98
2018-06-12T02:53:03.719Z,96976.09
2018-06-12T02:53:35.309Z,96974.39
2018-06-12T02:54:06.884Z,96975.25
2018-06-12T02:54:38.496Z,96978.27
2018-06-12T02:55:10.089Z,96979.97
2018-06-12T02:55:41.698Z,96980.41
2018-06-12T02:56:13.349Z,96979.52
2018-06-12T02:56:44.924Z,96970.87
2018-06-12T02:57:16.517Z,96976.00
2018-06-12T02:57:48.126Z,96975.64
2018-06-12T02:58:19.733Z,96976.51
2018-06-12T02:58:51.330Z,96933.42
2018-06-12T02:59:22.933Z,96979.13
2018-06-12T02:59:54.568Z,96973.62
2018-06-12T03:00:26.177Z,96978.75
2018-06-12T03:00:57.766Z,96975.77
2018-06-12T03:01:29.346Z,96976.56
2018-06-12T03:02:00.957Z,96977.41
2018-06-12T03:02:32.540Z,96970.58
2018-06-12T03:03:04.122Z,96978.27
2018-06-12T03:03:35.717Z,96977.05
2018-06-12T03:04:07.325Z,96976.18
2018-06-12T03:04:38.923Z,96976.18
2018-06-12T03:05:10.570Z,96977.49
2018-06-12T03:05:42.162Z,96974.00
2018-06-12T03:06:13.760Z,96976.06
2018-06-12T03:06:45.365Z,96974.27
2018-06-12T03:07:16.958Z,96974.92
2018-06-12T03:07:48.545Z,96978.56
2018-06-12T03:08:20.156Z,96976.80
2018-06-12T03:08:51.741Z,96977.34
2018-06-12T03:09:23.321Z,96976.12
2018-06-12T03:09:54.921Z,96974.95
2018-06-12T03:10:26.742Z,96978.47
2018-06-12T03:10:58.333Z,96977.70
2018-06-12T03:11:29.917Z,96979.07
2018-06-12T03:12:01.501Z,96983.37
2018-06-12T03:12:33.086Z,96976.98
2018-06-12T03:13:04.679Z,96980.03
2018-06-12T03:13:36.280Z,96980.47
2018-06-12T03:14:07.893Z,96984.68
2018-06-12T03:14:39.482Z,96984.27
2018-06-12T03:15:11.066Z,96984.27
2018-06-12T03:15:42.701Z,96980.47
2018-06-12T03:16:14.318Z,96982.63
2018-06-12T03:16:45.896Z,96983.45
2018-06-12T03:17:17.478Z,96987.63
2018-06-12T03:17:49.057Z,96982.11
2018-06-12T03:18:20.638Z,96985.94
2018-06-12T03:18:52.225Z,96982.53
2018-06-12T03:19:23.809Z,96985.52
2018-06-12T03:19:55.404Z,96984.27
2018-06-12T03:20:26.985Z,96982.68
2018-06-12T03:20:58.607Z,96987.72
2018-06-12T03:21:30.200Z,96979.25
2018-06-12T03:22:01.814Z,96987.30
2018-06-12T03:22:33.397Z,96983.04
2018-06-12T03:23:04.965Z,96986.47
2018-06-12T03:23:36.550Z,96984.35
2018-06-12T03:24:08.134Z,96982.59
2018-06-12T03:24:39.742Z,96987.72
2018-06-12T03:25:11.340Z,96987.75
2018-06-12T03:25:42.985Z,96987.34
2018-06-12T03:26:14.575Z,96986.92
2018-06-12T03:26:46.157Z,96985.63
2018-06-12T03:27:17.762Z,96988.70
2018-06-12T03:27:49.355Z,96987.45
2018-06-12T03:28:20.952Z,96990.77
2018-06-12T03:28:52.561Z,96990.37
2018-06-12T03:29:24.136Z,96989.90
2018-06-12T03:29:55.737Z,96989.93
2018-06-12T03:30:27.349Z,96992.55
2018-06-12T03:30:58.980Z,96990.37
2018-06-12T03:31:30.556Z,96990.37
2018-06-12T03:32:02.138Z,96991.30
2018-06-12T03:32:33.749Z,96999.41
2018-06-12T03:33:05.348Z,96995.17
2018-06-12T03:33:36.944Z,96997.27
2018-06-12T03:34:08.530Z,97001.98
2018-06-12T03:34:40.140Z,96999.00
2018-06-12T03:35:11.725Z,96999.77
2018-06-12T03:35:43.302Z,97009.61
2018-06-12T03:36:14.886Z,97008.39
2018-06-12T03:36:46.465Z,97002.01
2018-06-12T03:37:18.066Z,97017.78
2018-06-12T03:37:49.631Z,97011.82
2018-06-12T03:38:21.214Z,97010.54
2018-06-12T03:38:52.807Z,97015.66
2018-06-12T03:39:24.386Z,97016.98
2018-06-12T03:39:55.971Z,97016.98
2018-06-12T03:40:27.564Z,97007.55
2018-06-12T03:40:59.169Z,97012.69
2018-06-12T03:41:30.805Z,97015.66
2018-06-12T03:42:02.452Z,97009.25
2018-06-12T03:42:34.040Z,97008.00
2018-06-12T03:43:05.632Z,97011.84
2018-06-12T03:43:37.241Z,97004.57
2018-06-12T03:44:08.850Z,97012.59
2018-06-12T03:44:40.449Z,97010.45
2018-06-12T03:45:12.037Z,97008.72
2018-06-12T03:45:43.649Z,97010.51
2018-06-12T03:46:15.270Z,97008.33
2018-06-12T03:46:46.864Z,97017.78
2018-06-12T03:47:18.463Z,97011.82
2018-06-12T03:47:50.073Z,97016.11
2018-06-12T03:48:21.681Z,97018.27
2018-06-12T03:48:53.269Z,97014.80
2018-06-12T03:49:24.877Z,97015.25
2018-06-12T03:49:56.476Z,97017.88
2018-06-12T03:50:28.058Z,97017.84
2018-06-12T03:50:59.666Z,97015.28
2018-06-12T03:51:31.301Z,97019.55
2018-06-12T03:52:02.885Z,97018.67
2018-06-12T03:52:34.489Z,97017.81
2018-06-12T03:53:06.088Z,97013.55
2018-06-12T03:53:37.660Z,97016.11
2018-06-12T03:54:09.273Z,97017.84
2018-06-12T03:54:40.876Z,97014.86
2018-06-12T03:55:12.472Z,97016.56
2018-06-12T03:55:44.067Z,97004.60
2018-06-12T03:56:15.673Z,97007.70
2018-06-12T03:56:47.325Z,97014.02
2018-06-12T03:57:18.927Z,97001.17
2018-06-12T03:57:50.538Z,97014.41
2018-06-12T03:58:22.116Z,97003.73
2018-06-12T03:58:53.690Z,97011.88
2018-06-12T03:59:25.277Z,97008.90
2018-06-12T03:59:56.874Z,97015.73
2018-06-12T04:00:28.484Z,97014.45
2018-06-12T04:01:00.094Z,97008.90
2018-06-12T04:01:31.672Z,97003.77
2018-06-12T04:02:03.536Z,97013.66
2018-06-12T04:02:35.136Z,97009.82
2018-06-12T04:03:06.718Z,97007.67
2018-06-12T04:03:38.401Z,97012.36
2018-06-12T04:04:10.009Z,97008.90
2018-06-12T04:04:41.613Z,97013.58
2018-06-12T04:05:13.184Z,97008.90
2018-06-12T04:05:44.756Z,97017.42
2018-06-12T04:06:16.361Z,97014.38
2018-06-12T04:06:47.936Z,97013.46
2018-06-12T04:07:19.550Z,97005.14
2018-06-12T04:07:51.153Z,97006.39
2018-06-12T04:08:22.724Z,97011.44
2018-06-12T04:08:54.310Z,97010.59
2018-06-12T04:09:25.916Z,97014.03
2018-06-12T04:09:57.513Z,97011.11
2018-06-12T04:10:29.118Z,97013.19
2018-06-12T04:11:00.701Z,97006.39
2018-06-12T04:11:32.296Z,97009.41
2018-06-12T04:12:03.910Z,97010.27
2018-06-12T04:12:35.517Z,97012.42
2018-06-12T04:13:07.121Z,97010.75
2018-06-12T04:13:38.733Z,97015.10
2018-06-12T04:14:10.322Z,97012.59
2018-06-12T04:14:41.951Z,97012.23
2018-06-12T04:15:13.527Z,97009.28
2018-06-12T04:15:45.106Z,97012.72
2018-06-12T04:16:16.685Z,97008.45
2018-06-12T04:16:48.279Z,97009.28
2018-06-12T04:17:19.916Z,97007.55
2018-06-12T04:17:51.498Z,97007.14
2018-06-12T04:18:23.086Z,97003.70
2018-06-12T04:18:54.679Z,97010.98
2018-06-12T04:19:26.287Z,97003.73
2018-06-12T04:19:57.871Z,97006.72
2018-06-12T04:20:29.451Z,97015.28
2018-06-12T04:21:01.050Z,97012.72
2018-06-12T04:21:32.658Z,97013.58
2018-06-12T04:22:04.260Z,97007.61
2018-06-12T04:22:35.886Z,97014.02
2018-06-12T04:23:07.464Z,97013.16
2018-06-12T04:23:39.065Z,97008.09
2018-06-12T04:24:10.640Z,97008.54
2018-06-12T04:24:42.236Z,97006.03
2018-06-12T04:25:13.812Z,97015.31
2018-06-12T04:25:45.414Z,97012.30
2018-06-12T04:26:17.282Z,97014.50
2018-06-12T04:26:48.874Z,97014.92
2018-06-12T04:27:20.481Z,97010.27
2018-06-12T04:27:52.105Z,97007.23
2018-06-12T04:28:23.690Z,97009.41
2018-06-12T04:28:55.329Z,97011.08
2018-06-12T04:29:26.918Z,97015.31
2018-06-12T04:29:58.548Z,97012.74
2018-06-12T04:30:30.166Z,97012.30
2018-06-12T04:31:01.722Z,97017.81
2018-06-12T04:31:33.295Z,97017.81
2018-06-12T04:32:04.889Z,97014.86
2018-06-12T04:32:36.479Z,97014.83
2018-06-12T04:33:08.085Z,97019.09
2018-06-12T04:33:39.667Z,97016.98
2018-06-12T04:34:11.270Z,97013.16
2018-06-12T04:34:42.853Z,97017.84
2018-06-12T04:35:14.457Z,97017.84
2018-06-12T04:35:46.047Z,97013.97
2018-06-12T04:36:17.633Z,97016.44
2018-06-12T04:36:49.242Z,97020.77
2018-06-12T04:37:20.833Z,97022.08
2018-06-12T04:37:52.433Z,97016.53
2018-06-12T04:38:24.018Z,97022.55
2018-06-12T04:38:55.611Z,97023.42
2018-06-12T04:39:27.226Z,97018.80
2018-06-12T04:39:58.804Z,97022.64
2018-06-12T04:40:30.401Z,97030.75
2018-06-12T04:41:02.009Z,97031.20
2018-06-12T04:41:33.584Z,97024.79
2018-06-12T04:42:05.163Z,97029.89
2018-06-12T04:42:36.745Z,97032.91
2018-06-12T04:43:08.382Z,97032.91
2018-06-12T04:43:39.990Z,97030.34
2018-06-12T04:44:11.569Z,97031.62
2018-06-12T04:44:43.159Z,97033.34
2018-06-12T04:45:14.756Z,97029.59
2018-06-12T04:45:46.346Z,97031.62
2018-06-12T04:46:17.954Z,97032.45
2018-06-12T04:46:49.545Z,97027.23
2018-06-12T04:47:21.116Z,97023.36
2018-06-12T04:47:52.697Z,97028.91
2018-06-12T04:48:24.314Z,97028.82
2018-06-12T04:48:55.896Z,97034.45
2018-06-12T04:49:27.464Z,97032.70
2018-06-12T04:49:59.056Z,97033.17
2018-06-12T04:50:30.642Z,97034.06
2018-06-12T04:51:02.241Z,97035.34
2018-06-12T04:51:33.822Z,97039.23
2018-06-12T04:52:05.392Z,97040.92
2018-06-12T04:52:36.988Z,97032.88
2018-06-12T04:53:08.560Z,97040.48
2018-06-12T04:53:40.205Z,97034.96
2018-06-12T04:54:11.793Z,97038.66
2018-06-12T04:54:43.462Z,97042.88
2018-06-12T04:55:15.020Z,97037.26
2018-06-12T04:55:46.606Z,97046.66
2018-06-12T04:56:18.180Z,97044.53
2018-06-12T04:56:49.765Z,97049.28
2018-06-12T04:57:21.333Z,97044.09
2018-06-12T04:57:52.977Z,97051.87
2018-06-12T04:58:24.590Z,97051.02
2018-06-12T04:58:56.205Z,97051.06
2018-06-12T04:59:27.818Z,97050.27
2018-06-12T04:59:59.453Z,97048.14
2018-06-12T05:00:31.038Z,97049.02
2018-06-12T05:01:02.646Z,97045.19
2018-06-12T05:01:34.229Z,97049.93
2018-06-12T05:02:05.810Z,97054.14
2018-06-12T05:02:37.413Z,97046.00
2018-06-12T05:03:08.993Z,97051.04
2018-06-12T05:03:40.593Z,97051.45
2018-06-12T05:04:12.234Z,97053.58
2018-06-12T05:04:43.812Z,97053.63
2018-06-12T05:05:15.417Z,97051.45
2018-06-12T05:05:47.024Z,97058.31
2018-06-12T05:06:18.613Z,97056.67
2018-06-12T05:06:50.202Z,97047.78
2018-06-12T05:07:21.791Z,97054.59
2018-06-12T05:07:53.370Z,97051.19
2018-06-12T05:08:24.953Z,97054.59
2018-06-12T05:08:56.532Z,97059.30
2018-06-12T05:09:28.175Z,97056.73
2018-06-12T05:09:59.750Z,97057.59
2018-06-12T05:10:31.389Z,97055.87
2018-06-12T05:11:02.956Z,97062.70
2018-06-12T05:11:34.542Z,97058.41
2018-06-12T05:12:06.141Z,97057.48
2018-06-12T05:12:37.757Z,97060.91
2018-06-12T05:13:09.346Z,97059.18
2018-06-12T05:13:40.943Z,97059.13
2018-06-12T05:14:12.520Z,97060.73
2018-06-12T05:14:44.171Z,97063.75
2018-06-12T05:15:15.771Z,97059.06
2018-06-12T05:15:47.385Z,97056.56
2018-06-12T05:16:19.002Z,97061.19
2018-06-12T05:16:50.595Z,97056.08
2018-06-12T05:17:22.181Z,97058.20
2018-06-12T05:17:53.790Z,97063.27
2018-06-12T05:18:25.373Z,97059.00
2018-06-12T05:18:56.957Z,97062.44
2018-06-12T05:19:28.538Z,97060.28
2018-06-12T05:20:00.263Z,97058.64
2018-06-12T05:20:31.812Z,97065.05
2018-06-12T05:21:03.420Z,97064.25
2018-06-12T05:21:35.026Z,97062.58
2018-06-12T05:22:06.633Z,97067.27
2018-06-12T05:22:38.208Z,97061.00
2018-06-12T05:23:09.776Z,97067.73
2018-06-12T05:23:41.385Z,97064.70
2018-06-12T05:24:12.956Z,97062.13
2018-06-12T05:24:44.542Z,97066.40
2018-06-12T05:25:16.157Z,97065.05
2018-06-12T05:25:47.738Z,97069.83
2018-06-12T05:26:19.318Z,97065.98
2018-06-12T05:26:50.916Z,97064.70
2018-06-12T05:27:22.527Z,97066.42
2018-06-12T05:27:54.113Z,97073.28
2018-06-12T05:28:25.743Z,97065.59
2018-06-12T05:28:57.341Z,97065.23
2018-06-12T05:29:28.949Z,97068.61
2018-06-12T05:30:00.537Z,97061.81
2018-06-12T05:30:32.202Z,97064.76
2018-06-12T05:31:03.873Z,97063.03
2018-06-12T05:31:35.422Z,97067.27
2018-06-12T05:32:07.021Z,97063.00
2018-06-12T05:32:38.605Z,97068.45
2018-06-12T05:33:10.196Z,97065.95
2018-06-12T05:33:41.801Z,97068.55
2018-06-12T05:34:13.386Z,97068.13
2018-06-12T05:34:44.965Z,97065.14
2018-06-12T05:35:16.573Z,97063.41
2018-06-12T05:35:48.209Z,97068.13
2018-06-12T05:36:19.843Z,97067.71
2018-06-12T05:36:51.417Z,97064.76
2018-06-12T05:37:22.992Z,97067.32
2018-06-12T05:37:54.579Z,97065.23
2018-06-12T05:38:26.159Z,97068.58
2018-06-12T05:38:57.742Z,97069.38
2018-06-12T05:39:29.326Z,97072.37
2018-06-12T05:40:00.907Z,97066.16
2018-06-12T05:40:32.490Z,97074.88
2018-06-12T05:41:04.123Z,97075.33
2018-06-12T05:41:35.729Z,97071.86
2018-06-12T05:42:07.334Z,97071.19
2018-06-12T05:42:38.934Z,97073.46
2018-06-12T05:43:10.545Z,97077.84
2018-06-12T05:43:42.159Z,97073.73
2018-06-12T05:44:13.745Z,97075.42
2018-06-12T05:44:45.339Z,97072.39
2018-06-12T05:45:16.921Z,97076.56
2018-06-12T05:45:48.488Z,97073.41
2018-06-12T05:46:20.124Z,97075.27
2018-06-12T05:46:51.729Z,97073.77
2018-06-12T05:47:23.324Z,97077.60
2018-06-12T05:47:54.905Z,97077.19
2018-06-12T05:48:26.486Z,97075.52
2018-06-12T05:48:58.090Z,97073.03
2018-06-12T05:49:29.674Z,97070.94
2018-06-12T05:50:01.282Z,97075.23
2018-06-12T05:50:32.875Z,97067.21
2018-06-12T05:51:04.482Z,97069.86
2018-06-12T05:51:36.124Z,97070.72
2018-06-12T05:52:07.713Z,97067.78
2018-06-12T05:52:39.294Z,97070.88
2018-06-12T05:53:10.902Z,97071.81
2018-06-12T05:53:42.508Z,97072.68
2018-06-12T05:54:14.117Z,97069.37
2018-06-12T05:54:45.721Z,97073.23
2018-06-12T05:55:17.329Z,97067.77
2018-06-12T05:55:51.303Z,97069.05
2018-06-12T05:56:22.886Z,97074.20
2018-06-12T05:56:54.526Z,97072.08
2018-06-12T05:57:26.109Z,97081.91
2018-06-12T05:57:57.693Z,97070.41
2018-06-12T05:58:29.268Z,97071.77
2018-06-12T05:59:00.901Z,97066.81
2018-06-12T05:59:32.513Z,97081.31
2018-06-12T06:00:04.117Z,97078.41
2018-06-12T06:00:35.688Z,97083.20
2018-06-12T06:01:07.290Z,97077.27
2018-06-12T06:01:38.933Z,97083.66
2018-06-12T06:02:10.528Z,97085.39
2018-06-12T06:02:42.134Z,97069.77
2018-06-12T06:03:13.716Z,97078.66
2018-06-12T06:03:45.288Z,97078.67
2018-06-12T06:04:16.880Z,97079.12
2018-06-12T06:04:48.487Z,97075.36
2018-06-12T06:05:20.078Z,97078.73
2018-06-12T06:05:51.681Z,97074.81
2018-06-12T06:06:23.269Z,97077.37
2018-06-12T06:06:54.929Z,97080.77
2018-06-12T06:07:27.102Z,97079.54
2018-06-12T06:07:58.736Z,97078.34
2018-06-12T06:08:30.341Z,97081.31
2018-06-12T06:09:01.962Z,97077.11
2018-06-12T06:09:33.527Z,97087.83
2018-06-12T06:10:05.113Z,97079.33
2018-06-12T06:10:36.735Z,97082.33
2018-06-12T06:11:08.380Z,97087.88